createdAt,value
2022-08-14T00:02:24.417Z,17.30
2022-08-14T00:04:54.050Z,17.30
2022-08-14T00:07:21.136Z,17.30
2022-08-14T00:09:56.048Z,17.20
2022-08-14T00:12:39.352Z,17.20
2022-08-14T00:15:16.089Z,17.20
2022-08-14T00:17:47.241Z,17.10
2022-08-14T00:20:23.949Z,17.10
2022-08-14T00:22:57.364Z,17.10
2022-08-14T00:25:30.724Z,17.10
2022-08-14T00:28:15.517Z,17.10
2022-08-14T00:30:46.499Z,17.00
2022-08-14T00:33:16.496Z,16.90
2022-08-14T00:36:35.992Z,16.80
2022-08-14T00:38:34.969Z,16.80
2022-08-14T00:41:07.239Z,16.70
2022-08-14T00:43:43.244Z,16.70
2022-08-14T00:46:23.416Z,16.70
2022-08-14T00:49:00.127Z,16.50
2022-08-14T00:51:34.716Z,16.60
2022-08-14T00:54:11.183Z,16.50
2022-08-14T00:56:50.127Z,16.50
2022-08-14T00:59:17.320Z,16.40
2022-08-14T01:01:46.035Z,16.40
2022-08-14T01:04:38.169Z,16.40
2022-08-14T01:07:04.872Z,16.40
2022-08-14T01:09:37.741Z,16.40
2022-08-14T01:12:07.694Z,16.30
2022-08-14T01:14:35.792Z,16.30
2022-08-14T01:17:03.582Z,16.20
2022-08-14T01:19:49.809Z,16.10
2022-08-14T01:22:20.194Z,16.00
2022-08-14T01:24:48.549Z,15.90
2022-08-14T01:27:19.759Z,15.90
2022-08-14T01:30:03.844Z,15.80
2022-08-14T01:32:35.310Z,15.80
2022-08-14T01:35:17.750Z,15.70
2022-08-14T01:37:56.987Z,15.70
2022-08-14T01:40:36.780Z,15.70
2022-08-14T01:43:15.947Z,15.70
2022-08-14T01:46:05.712Z,15.70
2022-08-14T01:48:37.037Z,15.70
2022-08-14T01:51:19.104Z,15.60
2022-08-14T01:53:54.892Z,15.60
2022-08-14T01:56:39.285Z,15.50
2022-08-14T01:59:22.297Z,15.40
2022-08-14T02:01:57.906Z,15.30
2022-08-14T02:04:54.534Z,15.30
2022-08-14T02:07:44.948Z,15.30
2022-08-14T02:10:13.226Z,15.30
2022-08-14T02:12:43.291Z,15.20
2022-08-14T02:15:11.558Z,15.20
2022-08-14T02:17:39.053Z,15.10
2022-08-14T02:20:08.672Z,15.20
2022-08-14T02:22:36.062Z,15.20
2022-08-14T02:25:16.795Z,15.20
2022-08-14T02:28:25.727Z,15.20
2022-08-14T02:30:33.955Z,15.10
2022-08-14T02:33:07.386Z,15.00
2022-08-14T02:35:40.718Z,15.00
2022-08-14T02:38:11.872Z,14.90
2022-08-14T02:40:55.259Z,14.80
2022-08-14T02:43:22.773Z,14.80
2022-08-14T02:45:50.508Z,14.80
2022-08-14T02:49:02.919Z,14.90
2022-08-14T02:51:12.299Z,14.90
2022-08-14T02:53:45.602Z,14.80
2022-08-14T02:56:30.582Z,14.70
2022-08-14T02:59:06.761Z,14.70
2022-08-14T03:01:50.508Z,14.60
2022-08-14T03:04:20.649Z,14.60
2022-08-14T03:06:57.963Z,14.50
2022-08-14T03:09:41.950Z,14.50
2022-08-14T03:12:31.446Z,14.50
2022-08-14T03:15:13.960Z,14.50
2022-08-14T03:17:57.290Z,14.50
2022-08-14T03:20:29.968Z,14.60
2022-08-14T03:23:03.294Z,14.50
2022-08-14T03:25:33.558Z,14.50
2022-08-14T03:28:14.568Z,14.50
2022-08-14T03:31:01.630Z,14.50
2022-08-14T03:33:38.058Z,14.40
2022-08-14T03:37:38.519Z,14.40
2022-08-14T03:39:14.138Z,14.30
2022-08-14T03:41:49.945Z,14.30
2022-08-14T03:45:26.875Z,14.30
2022-08-14T03:47:05.258Z,14.20
2022-08-14T03:49:32.313Z,14.10
2022-08-14T03:52:07.683Z,14.10
2022-08-14T03:54:52.564Z,14.00
2022-08-14T03:57:22.774Z,14.00
2022-08-14T03:59:50.832Z,13.90
2022-08-14T04:02:32.296Z,13.90
2022-08-14T04:05:08.143Z,13.80
2022-08-14T04:07:49.489Z,13.80
2022-08-14T04:10:31.934Z,13.80
2022-08-14T04:13:06.140Z,13.80
2022-08-14T04:15:55.930Z,13.80
2022-08-14T04:18:21.601Z,13.80
2022-08-14T04:20:54.446Z,13.90
2022-08-14T04:23:23.675Z,13.90
2022-08-14T04:25:56.447Z,13.90
2022-08-14T04:29:07.370Z,13.90
2022-08-14T04:31:12.153Z,14.00
2022-08-14T04:33:43.000Z,14.10
2022-08-14T04:36:16.082Z,14.10
2022-08-14T04:39:03.936Z,14.10
2022-08-14T04:41:54.280Z,14.20
2022-08-14T04:44:26.511Z,14.30
2022-08-14T04:47:23.676Z,14.30
2022-08-14T04:49:57.113Z,14.40
2022-08-14T04:52:25.597Z,14.40
2022-08-14T04:54:54.696Z,14.40
2022-08-14T04:57:22.862Z,14.50
2022-08-14T04:59:52.828Z,14.60
2022-08-14T05:02:21.627Z,14.60
2022-08-14T05:04:57.420Z,14.70
2022-08-14T05:07:46.565Z,14.80
2022-08-14T05:10:16.452Z,14.90
2022-08-14T05:13:13.509Z,15.00
2022-08-14T05:15:39.397Z,15.10
2022-08-14T05:18:17.767Z,15.10
2022-08-14T05:21:59.585Z,15.10
2022-08-14T05:23:52.085Z,15.30
2022-08-14T05:26:21.770Z,15.40
2022-08-14T05:28:48.778Z,15.60
2022-08-14T05:31:20.336Z,15.70
2022-08-14T05:33:56.947Z,15.80
2022-08-14T05:36:25.276Z,15.90
2022-08-14T05:38:54.290Z,16.10
2022-08-14T05:41:22.451Z,16.20
2022-08-14T05:43:51.128Z,17.40
2022-08-14T05:46:23.266Z,20.50
2022-08-14T05:48:57.358Z,23.70
2022-08-14T05:51:25.828Z,26.40
2022-08-14T05:54:01.611Z,28.40
2022-08-14T05:56:40.178Z,29.80
2022-08-14T05:59:07.583Z,31.10
2022-08-14T06:01:35.375Z,32.00
2022-08-14T06:04:05.073Z,32.40
2022-08-14T06:06:36.619Z,33.10
2022-08-14T06:09:06.007Z,33.30
2022-08-14T06:11:37.479Z,34.00
2022-08-14T06:14:12.374Z,34.40
2022-08-14T06:16:48.452Z,34.80
2022-08-14T06:19:18.218Z,35.20
2022-08-14T06:21:45.460Z,36.00
2022-08-14T06:24:18.597Z,36.40
2022-08-14T06:26:54.346Z,36.60
2022-08-14T06:29:32.080Z,36.60
2022-08-14T06:32:37.450Z,37.00
2022-08-14T06:35:10.705Z,37.30
2022-08-14T06:37:53.128Z,37.50
2022-08-14T06:40:28.612Z,37.50
2022-08-14T06:43:06.975Z,37.40
2022-08-14T06:45:37.165Z,37.70
2022-08-14T06:48:17.276Z,37.80
2022-08-14T06:50:46.075Z,37.90
2022-08-14T06:53:14.822Z,37.90
2022-08-14T06:55:58.544Z,37.80
2022-08-14T06:58:31.393Z,38.10
2022-08-14T07:01:24.985Z,38.40
2022-08-14T07:04:23.137Z,38.50
2022-08-14T07:06:59.020Z,37.80
2022-08-14T07:09:43.883Z,37.10
2022-08-14T07:12:54.161Z,36.80
2022-08-14T07:15:03.783Z,36.70
2022-08-14T07:17:32.179Z,37.30
2022-08-14T07:20:01.477Z,37.20
2022-08-14T07:22:33.025Z,36.10
2022-08-14T07:25:16.198Z,36.10
2022-08-14T07:27:43.425Z,36.50
2022-08-14T07:30:34.315Z,36.60
2022-08-14T07:32:58.298Z,36.60
2022-08-14T07:35:25.272Z,36.80
2022-08-14T07:38:06.449Z,36.30
2022-08-14T07:40:35.835Z,35.20
2022-08-14T07:43:14.129Z,34.60
2022-08-14T07:45:42.326Z,35.10
2022-08-14T07:48:14.830Z,35.60
2022-08-14T07:50:42.520Z,35.60
2022-08-14T07:53:14.367Z,34.90
2022-08-14T07:55:43.292Z,34.00
2022-08-14T07:58:30.268Z,33.30
2022-08-14T08:00:58.155Z,32.70
2022-08-14T08:03:29.485Z,32.40
2022-08-14T08:05:58.235Z,31.70
2022-08-14T08:08:27.780Z,31.00
2022-08-14T08:11:01.794Z,30.80
2022-08-14T08:13:33.167Z,30.40
2022-08-14T08:16:02.178Z,30.40
2022-08-14T08:18:30.947Z,30.20
2022-08-14T08:21:00.167Z,30.30
2022-08-14T08:23:31.039Z,30.10
2022-08-14T08:26:08.556Z,30.20
2022-08-14T08:28:36.007Z,30.20
2022-08-14T08:31:05.937Z,30.40
2022-08-14T08:33:40.165Z,30.60
2022-08-14T08:36:12.625Z,30.40
2022-08-14T08:39:16.597Z,30.60
2022-08-14T08:42:05.529Z,31.10
2022-08-14T08:44:34.360Z,30.80
2022-08-14T08:47:06.797Z,30.60
2022-08-14T08:49:48.519Z,30.30
2022-08-14T08:52:30.962Z,30.10
2022-08-14T08:54:59.272Z,30.30
2022-08-14T08:57:36.019Z,30.10
2022-08-14T09:00:24.565Z,30.40
2022-08-14T09:02:54.679Z,30.50
2022-08-14T09:05:23.504Z,30.70
2022-08-14T09:07:50.763Z,31.00
2022-08-14T09:10:23.776Z,31.00
2022-08-14T09:12:56.331Z,31.40
2022-08-14T09:15:24.194Z,31.20
2022-08-14T09:17:52.899Z,31.20
2022-08-14T09:20:26.365Z,31.20
2022-08-14T09:22:58.132Z,31.40
2022-08-14T09:26:01.195Z,31.40
2022-08-14T09:28:14.215Z,31.80
2022-08-14T09:30:45.607Z,32.20
2022-08-14T09:33:31.643Z,32.20
2022-08-14T09:36:38.157Z,32.50
2022-08-14T09:39:53.795Z,31.90
2022-08-14T09:42:33.462Z,31.50
2022-08-14T09:45:53.328Z,31.40
2022-08-14T09:48:30.076Z,31.20
2022-08-14T09:54:18.502Z,30.40
2022-08-14T09:56:31.042Z,30.50
2022-08-14T09:59:10.809Z,30.40
2022-08-14T10:01:39.603Z,30.50
2022-08-14T10:04:34.799Z,30.40
2022-08-14T10:07:08.533Z,30.70
2022-08-14T10:09:59.542Z,30.80
2022-08-14T10:12:47.754Z,31.20
2022-08-14T10:15:25.372Z,31.10
2022-08-14T10:18:18.506Z,31.10
2022-08-14T10:21:01.641Z,31.40
2022-08-14T10:23:40.425Z,31.40
2022-08-14T10:26:09.152Z,31.80
2022-08-14T10:29:17.785Z,31.60
2022-08-14T10:31:43.237Z,31.50
2022-08-14T10:34:19.122Z,32.00
2022-08-14T10:36:50.280Z,32.80
2022-08-14T10:39:30.301Z,32.90
2022-08-14T10:42:18.218Z,32.50
2022-08-14T10:44:52.618Z,32.40
2022-08-14T10:47:41.041Z,32.20
2022-08-14T10:50:12.227Z,32.40
2022-08-14T10:52:43.381Z,33.20
2022-08-14T10:55:16.414Z,33.80
2022-08-14T10:57:54.789Z,33.60
2022-08-14T11:00:30.151Z,33.40
2022-08-14T11:03:11.053Z,32.70
2022-08-14T11:05:55.595Z,31.70
2022-08-14T11:08:34.012Z,31.50
2022-08-14T11:11:05.596Z,31.90
2022-08-14T11:13:33.737Z,32.30
2022-08-14T11:16:02.611Z,32.20
2022-08-14T11:18:36.232Z,31.40
2022-08-14T11:21:09.886Z,31.50
2022-08-14T11:23:41.195Z,32.30
2022-08-14T11:26:14.429Z,32.90
2022-08-14T11:28:46.276Z,32.50
2022-08-14T11:31:18.218Z,32.50
2022-08-14T11:33:49.689Z,32.60
2022-08-14T11:36:17.811Z,32.90
2022-08-14T11:38:46.696Z,32.80
2022-08-14T11:41:17.252Z,33.50
2022-08-14T11:43:58.184Z,33.50
2022-08-14T11:46:30.273Z,33.70
2022-08-14T11:49:05.272Z,33.30
2022-08-14T11:51:35.943Z,33.50
2022-08-14T11:54:09.406Z,33.80
2022-08-14T11:56:45.826Z,33.10
2022-08-14T11:59:18.759Z,32.50
2022-08-14T12:01:46.416Z,32.60
2022-08-14T12:04:31.582Z,32.70
2022-08-14T12:07:01.749Z,32.90
2022-08-14T12:09:37.399Z,33.10
2022-08-14T12:12:35.118Z,33.00
2022-08-14T12:15:04.561Z,33.30
2022-08-14T12:17:47.350Z,33.80
2022-08-14T12:20:16.321Z,34.20
2022-08-14T12:23:05.243Z,34.40
2022-08-14T12:25:34.557Z,34.80
2022-08-14T12:28:10.344Z,34.90
2022-08-14T12:30:56.610Z,34.50
2022-08-14T12:33:33.963Z,33.80
2022-08-14T12:36:06.232Z,33.70
2022-08-14T12:38:44.896Z,34.20
2022-08-14T12:41:21.087Z,34.00
2022-08-14T12:44:01.989Z,33.70
2022-08-14T12:46:37.943Z,33.30
2022-08-14T12:49:11.778Z,32.60
2022-08-14T12:51:55.354Z,32.50
2022-08-14T12:54:28.455Z,33.40
2022-08-14T12:57:19.915Z,34.00
2022-08-14T12:59:49.587Z,34.60
2022-08-14T13:02:26.963Z,34.90
2022-08-14T13:04:56.611Z,35.20
2022-08-14T13:07:32.540Z,35.40
2022-08-14T13:10:45.873Z,35.40
2022-08-14T13:13:12.056Z,34.90
2022-08-14T13:15:40.108Z,33.70
2022-08-14T13:18:11.414Z,33.40
2022-08-14T13:20:48.046Z,33.50
2022-08-14T13:23:19.347Z,33.20
2022-08-14T13:25:58.977Z,32.60
2022-08-14T13:28:33.022Z,32.00
2022-08-14T13:31:08.966Z,31.80
2022-08-14T13:33:40.482Z,32.10
2022-08-14T13:36:18.226Z,32.50
2022-08-14T13:38:53.737Z,32.80
2022-08-14T13:41:28.170Z,33.10
2022-08-14T13:44:04.318Z,33.50
2022-08-14T13:46:31.465Z,33.80
2022-08-14T13:48:59.737Z,33.70
2022-08-14T13:51:30.451Z,33.10
2022-08-14T13:54:10.320Z,32.70
2022-08-14T13:56:40.610Z,32.20
2022-08-14T13:59:08.899Z,32.00
2022-08-14T14:01:43.343Z,31.60
2022-08-14T14:04:19.512Z,31.40
2022-08-14T14:06:52.345Z,31.70
2022-08-14T14:09:32.460Z,32.40
2022-08-14T14:12:08.129Z,33.10
2022-08-14T14:14:55.871Z,33.30
2022-08-14T14:17:25.491Z,33.80
2022-08-14T14:19:57.880Z,34.20
2022-08-14T14:23:00.796Z,34.70
2022-08-14T14:25:19.545Z,35.10
2022-08-14T14:27:53.661Z,34.90
2022-08-14T14:30:52.477Z,34.50
2022-08-14T14:33:44.059Z,33.80
2022-08-14T14:36:04.988Z,32.90
2022-08-14T14:38:33.875Z,32.10
2022-08-14T14:41:03.728Z,31.80
2022-08-14T14:43:35.556Z,31.60
2022-08-14T14:46:08.613Z,31.20
2022-08-14T14:48:54.609Z,30.80
2022-08-14T14:51:22.307Z,30.60
2022-08-14T14:53:49.938Z,30.80
2022-08-14T14:56:50.075Z,31.30
2022-08-14T14:59:05.137Z,31.90
2022-08-14T15:01:35.600Z,32.30
2022-08-14T15:04:07.805Z,32.60
2022-08-14T15:06:35.961Z,32.60
2022-08-14T15:09:04.849Z,32.60
2022-08-14T15:11:35.907Z,32.40
2022-08-14T15:14:53.953Z,32.40
2022-08-14T15:16:52.594Z,32.60
2022-08-14T15:19:22.193Z,32.60
2022-08-14T15:21:50.729Z,32.40
2022-08-14T15:24:24.452Z,32.30
2022-08-14T15:26:57.231Z,31.90
2022-08-14T15:29:26.110Z,31.70
2022-08-14T15:31:54.129Z,32.00
2022-08-14T15:34:45.443Z,32.40
2022-08-14T15:37:13.141Z,32.60
2022-08-14T15:39:45.397Z,32.60
2022-08-14T15:42:16.237Z,32.50
2022-08-14T15:44:56.932Z,32.60
2022-08-14T15:47:29.014Z,32.60
2022-08-14T15:49:59.622Z,32.50
2022-08-14T15:52:32.913Z,32.20
2022-08-14T15:55:07.931Z,32.00
2022-08-14T15:57:36.483Z,31.80
2022-08-14T16:00:40.307Z,31.80
2022-08-14T16:03:13.997Z,31.90
2022-08-14T16:05:43.687Z,32.00
2022-08-14T16:08:29.235Z,31.80
2022-08-14T16:11:00.620Z,31.70
2022-08-14T16:13:41.461Z,31.70
2022-08-14T16:16:47.884Z,31.50
2022-08-14T16:19:10.060Z,31.30
2022-08-14T16:22:03.560Z,31.20
2022-08-14T16:25:00.286Z,31.00
2022-08-14T16:27:39.079Z,31.00
2022-08-14T16:30:24.530Z,30.90
2022-08-14T16:32:59.155Z,30.80
2022-08-14T16:35:41.813Z,30.70
2022-08-14T16:38:35.808Z,30.30
2022-08-14T16:41:18.208Z,30.10
2022-08-14T16:43:52.322Z,30.10
2022-08-14T16:46:22.273Z,30.00
2022-08-14T16:48:55.087Z,29.90
2022-08-14T16:51:24.652Z,29.90
2022-08-14T16:53:52.028Z,29.90
2022-08-14T16:56:24.195Z,29.90
2022-08-14T16:59:13.420Z,29.80
2022-08-14T17:01:44.281Z,29.80
2022-08-14T17:04:24.952Z,29.70
2022-08-14T17:06:58.496Z,29.70
2022-08-14T17:09:27.767Z,29.70
2022-08-14T17:12:08.213Z,29.50
2022-08-14T17:14:50.760Z,29.50
2022-08-14T17:17:21.520Z,29.40
2022-08-14T17:19:58.002Z,29.30
2022-08-14T17:22:47.700Z,29.30
2022-08-14T17:25:17.347Z,29.20
2022-08-14T17:28:50.201Z,29.00
2022-08-14T17:31:06.575Z,28.90
2022-08-14T17:33:40.993Z,28.80
2022-08-14T17:36:21.054Z,28.70
2022-08-14T17:39:11.769Z,28.60
2022-08-14T17:41:43.599Z,28.50
2022-08-14T17:44:34.027Z,28.50
2022-08-14T17:47:10.342Z,28.30
2022-08-14T17:49:51.847Z,28.30
2022-08-14T17:52:34.643Z,28.10
2022-08-14T17:55:12.488Z,28.00
2022-08-14T17:57:41.433Z,27.80
2022-08-14T18:00:17.239Z,27.70
2022-08-14T18:02:50.942Z,27.60
2022-08-14T18:05:23.774Z,27.50
2022-08-14T18:08:33.775Z,27.30
2022-08-14T18:10:57.251Z,27.10
2022-08-14T18:13:51.664Z,26.90
2022-08-14T18:16:20.581Z,26.80
2022-08-14T18:18:51.674Z,26.60
2022-08-14T18:21:40.213Z,26.50
2022-08-14T18:24:20.123Z,26.40
2022-08-14T18:27:09.391Z,26.30
2022-08-14T18:29:55.918Z,26.10
2022-08-14T18:32:32.104Z,26.00
2022-08-14T18:35:13.322Z,25.80
2022-08-14T18:37:42.382Z,25.60
2022-08-14T18:40:33.495Z,25.50
2022-08-14T18:43:03.494Z,25.30
2022-08-14T18:45:33.516Z,25.20
2022-08-14T18:48:19.202Z,25.00
2022-08-14T18:50:55.762Z,24.90
2022-08-14T18:53:25.501Z,24.80
2022-08-14T18:56:09.317Z,24.70
2022-08-14T18:58:58.468Z,24.60
2022-08-14T19:01:30.204Z,24.50
2022-08-14T19:04:00.975Z,24.30
2022-08-14T19:06:44.727Z,24.20
2022-08-14T19:09:50.894Z,24.00
2022-08-14T19:12:53.018Z,23.90
2022-08-14T19:15:26.913Z,23.80
2022-08-14T19:18:14.228Z,23.60
2022-08-14T19:20:52.626Z,23.40
2022-08-14T19:23:42.604Z,23.30
2022-08-14T19:26:33.611Z,23.20
2022-08-14T19:29:38.167Z,23.20
2022-08-14T19:32:36.607Z,23.10
2022-08-14T19:35:17.315Z,23.10
2022-08-14T19:37:52.439Z,23.00
2022-08-14T19:40:42.879Z,22.90
2022-08-14T19:43:55.252Z,22.90
2022-08-14T19:46:37.490Z,22.80
2022-08-14T19:48:57.384Z,22.80
2022-08-14T19:51:25.184Z,22.60
2022-08-14T19:54:13.549Z,22.50
2022-08-14T19:56:45.129Z,22.40
2022-08-14T19:59:18.844Z,22.40
2022-08-14T20:01:52.987Z,22.30
2022-08-14T20:04:45.998Z,22.20
2022-08-14T20:08:00.757Z,22.20
2022-08-14T20:11:08.125Z,22.10
2022-08-14T20:13:29.404Z,21.90
2022-08-14T20:16:20.943Z,21.80
2022-08-14T20:18:49.341Z,21.70
2022-08-14T20:21:18.705Z,21.70
2022-08-14T20:23:47.972Z,21.70
2022-08-14T20:26:30.998Z,21.60
2022-08-14T20:29:05.334Z,21.50
2022-08-14T20:31:36.659Z,21.40
2022-08-14T20:34:19.347Z,21.40
2022-08-14T20:37:10.498Z,21.40
2022-08-14T20:39:43.550Z,21.30
2022-08-14T20:42:35.944Z,21.30
2022-08-14T20:45:24.713Z,21.30
2022-08-14T20:48:01.024Z,21.30
2022-08-14T20:50:30.389Z,21.20
2022-08-14T20:52:58.732Z,21.10
2022-08-14T20:55:29.559Z,21.10
2022-08-14T20:57:58.938Z,21.00
2022-08-14T21:00:52.505Z,20.90
2022-08-14T21:03:56.438Z,20.80
2022-08-14T21:07:23.209Z,20.70
2022-08-14T21:10:03.270Z,20.60
2022-08-14T21:12:33.477Z,20.50
2022-08-14T21:15:00.945Z,20.50
2022-08-14T21:17:29.695Z,20.40
2022-08-14T21:19:56.944Z,20.40
2022-08-14T21:22:25.541Z,20.40
2022-08-14T21:24:59.857Z,20.30
2022-08-14T21:27:37.372Z,20.20
2022-08-14T21:30:08.450Z,20.10
2022-08-14T21:32:47.052Z,19.90
2022-08-14T21:35:19.721Z,19.90
2022-08-14T21:37:50.710Z,19.90
2022-08-14T21:40:42.117Z,19.90
2022-08-14T21:43:17.156Z,19.80
2022-08-14T21:45:53.235Z,19.80
2022-08-14T21:48:21.942Z,19.70
2022-08-14T21:51:01.136Z,19.70
2022-08-14T21:53:34.262Z,19.60
2022-08-14T21:56:03.592Z,19.50
2022-08-14T21:58:52.745Z,19.70
2022-08-14T22:01:19.458Z,19.70
2022-08-14T22:03:54.530Z,19.60
2022-08-14T22:06:28.818Z,19.60
2022-08-14T22:09:02.293Z,19.60
2022-08-14T22:11:30.015Z,19.60
2022-08-14T22:14:25.826Z,19.70
2022-08-14T22:17:03.483Z,19.70
2022-08-14T22:19:55.009Z,19.70
2022-08-14T22:22:26.064Z,19.70
2022-08-14T22:25:00.189Z,19.60
2022-08-14T22:27:32.206Z,19.60
2022-08-14T22:30:00.293Z,19.60
2022-08-14T22:32:56.877Z,19.60
2022-08-14T22:35:17.026Z,19.70
2022-08-14T22:37:45.095Z,19.70
2022-08-14T22:40:51.045Z,19.70
2022-08-14T22:43:08.212Z,19.70
2022-08-14T22:45:37.665Z,19.70
2022-08-14T22:48:10.686Z,19.70
2022-08-14T22:50:48.895Z,19.80
2022-08-14T22:53:20.927Z,19.80
2022-08-14T22:55:52.035Z,19.90
2022-08-14T22:58:31.475Z,19.90
2022-08-14T23:01:03.887Z,19.90
2022-08-14T23:03:34.371Z,19.80
2022-08-14T23:07:03.212Z,19.70
2022-08-14T23:09:02.262Z,19.70
2022-08-14T23:11:39.483Z,19.70
2022-08-14T23:14:07.164Z,19.80
2022-08-14T23:16:39.948Z,19.90
2022-08-14T23:19:11.723Z,20.00
2022-08-14T23:21:46.595Z,20.00
2022-08-14T23:24:14.234Z,20.00
2022-08-14T23:26:48.675Z,20.10
2022-08-14T23:29:20.406Z,20.20
2022-08-14T23:31:49.129Z,20.30
2022-08-14T23:34:20.909Z,20.40
2022-08-14T23:36:54.192Z,20.30
2022-08-14T23:39:24.502Z,20.30
2022-08-14T23:41:53.763Z,20.30
2022-08-14T23:44:24.529Z,20.40
2022-08-14T23:46:57.019Z,20.40
2022-08-14T23:50:01.013Z,20.50
2022-08-14T23:53:05.941Z,20.60
2022-08-14T23:55:03.245Z,20.60
2022-08-14T23:57:30.896Z,20.60
2022-08-14T23:59:57.886Z,20.40
